createdAt,value
2022-11-02T00:01:03.709Z,100420.50
2022-11-02T00:03:33.755Z,100418.84
2022-11-02T00:06:00.452Z,100422.25
2022-11-02T00:08:27.172Z,100424.88
2022-11-02T00:10:54.173Z,100424.03
2022-11-02T00:13:20.904Z,100426.59
2022-11-02T00:15:47.871Z,100426.63
2022-11-02T00:24:44.494Z,100424.00
2022-11-02T00:27:11.625Z,100421.31
2022-11-02T00:29:38.328Z,100420.44
2022-11-02T00:32:08.607Z,100424.88
2022-11-02T00:34:35.512Z,100429.16
2022-11-02T00:37:04.432Z,100432.66
2022-11-02T00:39:31.360Z,100437.00
2022-11-02T00:41:58.326Z,100436.97
2022-11-02T00:44:26.142Z,100430.78
2022-11-02T00:46:53.033Z,100415.12
2022-11-02T00:49:20.010Z,100423.84
2022-11-02T00:51:47.432Z,100418.62
2022-11-02T00:54:14.543Z,100416.97
2022-11-02T00:56:41.899Z,100421.22
2022-11-02T00:59:08.841Z,100420.34
2022-11-02T01:01:39.136Z,100423.78
2022-11-02T01:04:07.131Z,100422.06
2022-11-02T01:06:33.813Z,100437.72
2022-11-02T01:09:00.516Z,100430.75
2022-11-02T01:11:27.654Z,100423.75
2022-11-02T01:13:54.533Z,100420.22
2022-11-02T01:16:21.457Z,100422.03
2022-11-02T01:18:55.478Z,100423.69
2022-11-02T01:21:22.496Z,100420.25
2022-11-02T01:23:49.467Z,100414.09
2022-11-02T01:26:16.102Z,100408.91
2022-11-02T01:28:42.845Z,100404.56
2022-11-02T01:31:10.261Z,100405.44
2022-11-02T01:33:37.184Z,100395.78
2022-11-02T01:36:04.742Z,100397.59
2022-11-02T01:38:32.304Z,100401.00
2022-11-02T01:40:59.390Z,100400.13
2022-11-02T01:43:29.048Z,100402.81
2022-11-02T01:45:56.399Z,100408.03
2022-11-02T01:48:25.979Z,100409.78
2022-11-02T01:50:53.764Z,100406.22
2022-11-02T01:53:20.733Z,100411.47
2022-11-02T01:55:47.547Z,100409.75
2022-11-02T01:58:14.233Z,100402.81
2022-11-02T02:00:41.282Z,100404.56
2022-11-02T02:03:09.633Z,100394.16
2022-11-02T02:05:39.396Z,100397.59
2022-11-02T02:08:08.333Z,100395.81
2022-11-02T02:10:36.100Z,100396.53
2022-11-02T02:13:04.733Z,100397.53
2022-11-02T02:15:36.091Z,100392.31
2022-11-02T02:18:10.260Z,100391.44
2022-11-02T02:20:46.233Z,100394.91
2022-11-02T02:23:32.152Z,100402.75
2022-11-02T02:26:01.967Z,100397.53
2022-11-02T02:28:47.382Z,100395.75
2022-11-02T02:31:14.577Z,100400.81
2022-11-02T02:33:41.517Z,100400.84
2022-11-02T02:36:27.333Z,100400.03
2022-11-02T02:39:19.222Z,100406.16
2022-11-02T02:41:56.572Z,100419.13
2022-11-02T02:44:23.726Z,100418.47
2022-11-02T02:46:55.905Z,100429.72
2022-11-02T02:49:27.718Z,100429.53
2022-11-02T02:51:56.181Z,100422.66
2022-11-02T02:54:25.976Z,100443.34
2022-11-02T02:56:54.191Z,100447.75
2022-11-02T02:59:21.245Z,100434.66
2022-11-02T03:01:48.767Z,100441.81
2022-11-02T03:04:19.453Z,100442.59
2022-11-02T03:06:52.488Z,100452.94
2022-11-02T03:09:22.033Z,100443.53
2022-11-02T03:12:01.077Z,100454.75
2022-11-02T03:14:36.613Z,100444.41
2022-11-02T03:17:06.351Z,100458.19
2022-11-02T03:19:52.349Z,100451.25
2022-11-02T03:22:45.102Z,100453.13
2022-11-02T03:25:17.015Z,100458.25
2022-11-02T03:27:47.391Z,100465.31
2022-11-02T03:30:15.331Z,100469.75
2022-11-02T03:32:53.716Z,100470.47
2022-11-02T03:35:22.610Z,100470.47
2022-11-02T03:37:51.623Z,100464.37
2022-11-02T03:40:26.217Z,100461.91
2022-11-02T03:42:53.308Z,100461.91
2022-11-02T03:45:21.591Z,100453.06
2022-11-02T03:47:57.598Z,100456.66
2022-11-02T03:50:24.601Z,100447.97
2022-11-02T03:52:54.581Z,100454.94
2022-11-02T03:55:26.418Z,100454.06
2022-11-02T03:57:53.490Z,100458.41
2022-11-02T04:00:21.496Z,100466.09
2022-11-02T04:02:52.476Z,100465.41
2022-11-02T04:05:20.950Z,100467.13
2022-11-02T04:08:07.916Z,100473.19
2022-11-02T04:10:35.162Z,100475.66
2022-11-02T04:13:20.765Z,100475.84
2022-11-02T04:15:47.807Z,100477.63
2022-11-02T04:18:33.203Z,100482.88
2022-11-02T04:21:00.301Z,100488.03
2022-11-02T04:23:46.107Z,100490.59
2022-11-02T04:26:13.133Z,100488.97
2022-11-02T04:28:40.260Z,100491.59
2022-11-02T04:31:07.709Z,100502.13
2022-11-02T04:33:35.441Z,100503.84
2022-11-02T04:36:05.896Z,100499.53
2022-11-02T04:38:42.517Z,100502.22
2022-11-02T04:41:38.186Z,100498.75
2022-11-02T04:44:06.658Z,100493.56
2022-11-02T04:46:35.322Z,100497.97
2022-11-02T04:49:02.777Z,100497.81
2022-11-02T04:51:30.741Z,100498.00
2022-11-02T04:53:58.320Z,100500.56
2022-11-02T04:56:25.665Z,100501.28
2022-11-02T04:58:53.441Z,100503.94
2022-11-02T05:01:21.091Z,100511.00
2022-11-02T05:03:48.903Z,100501.44
2022-11-02T05:06:16.302Z,100503.19
2022-11-02T05:08:43.386Z,100505.75
2022-11-02T05:11:10.670Z,100495.94
2022-11-02T05:13:38.168Z,100501.25
2022-11-02T05:16:05.526Z,100507.72
2022-11-02T05:18:32.458Z,100509.06
2022-11-02T05:20:59.823Z,100507.34
2022-11-02T05:23:27.527Z,100515.84
2022-11-02T05:25:55.275Z,100505.53
2022-11-02T05:28:22.991Z,100516.97
2022-11-02T05:30:50.094Z,100518.53
2022-11-02T05:33:17.490Z,100515.66
2022-11-02T05:35:44.515Z,100518.91
2022-11-02T05:38:13.762Z,100512.72
2022-11-02T05:40:40.941Z,100514.69
2022-11-02T05:43:09.490Z,100507.16
2022-11-02T05:45:37.026Z,100507.41
2022-11-02T05:48:04.312Z,100511.81
2022-11-02T05:50:31.094Z,100508.09
2022-11-02T05:52:59.136Z,100506.16
2022-11-02T05:55:25.768Z,100495.06
2022-11-02T05:57:53.182Z,100504.53
2022-11-02T06:00:20.639Z,100497.63
2022-11-02T06:02:48.050Z,100505.47
2022-11-02T06:05:15.066Z,100503.97
2022-11-02T06:07:41.839Z,100503.19
2022-11-02T06:10:08.911Z,100502.34
2022-11-02T06:12:35.618Z,100503.19
2022-11-02T06:15:02.244Z,100502.34
2022-11-02T06:17:29.199Z,100505.78
2022-11-02T06:19:55.833Z,100500.59
2022-11-02T06:22:22.479Z,100519.75
2022-11-02T06:24:49.417Z,100523.03
2022-11-02T06:27:16.084Z,100534.47
2022-11-02T06:29:43.020Z,100539.53
2022-11-02T06:32:09.932Z,100537.09
2022-11-02T06:34:36.588Z,100535.44
2022-11-02T06:37:03.258Z,100540.62
2022-11-02T06:39:30.258Z,100543.28
2022-11-02T06:41:56.970Z,100546.00
2022-11-02T06:44:25.324Z,100555.53
2022-11-02T06:46:52.350Z,100563.31
2022-11-02T06:49:19.066Z,100559.81
2022-11-02T06:51:45.805Z,100566.78
2022-11-02T06:54:12.792Z,100560.75
2022-11-02T06:56:40.034Z,100559.00
2022-11-02T06:59:07.078Z,100553.75
2022-11-02T07:01:35.303Z,100549.44
2022-11-02T07:04:03.347Z,100551.22
2022-11-02T07:06:30.162Z,100552.97
2022-11-02T07:08:57.288Z,100549.47
2022-11-02T07:11:24.131Z,100547.81
2022-11-02T07:13:50.869Z,100551.31
2022-11-02T07:16:17.818Z,100550.38
2022-11-02T07:18:44.501Z,100548.63
2022-11-02T07:21:12.074Z,100547.75
2022-11-02T07:23:39.455Z,100550.44
2022-11-02T07:26:06.162Z,100549.44
2022-11-02T07:28:32.896Z,100551.25
2022-11-02T07:31:00.397Z,100553.03
2022-11-02T07:33:27.246Z,100553.09
2022-11-02T07:35:53.967Z,100560.06
2022-11-02T07:38:20.900Z,100554.03
2022-11-02T07:40:48.823Z,100548.87
2022-11-02T07:43:15.469Z,100560.13
2022-11-02T07:45:42.622Z,100562.81
2022-11-02T07:48:09.280Z,100558.50
2022-11-02T07:50:35.998Z,100558.47
2022-11-02T07:53:03.278Z,100555.00
2022-11-02T07:55:30.685Z,100558.47
2022-11-02T07:57:58.649Z,100560.25
2022-11-02T08:00:26.886Z,100559.34
2022-11-02T08:02:54.808Z,100555.87
2022-11-02T08:05:21.474Z,100556.75
2022-11-02T08:07:48.651Z,100555.84
2022-11-02T08:10:15.655Z,100556.75
2022-11-02T08:12:42.328Z,100559.34
2022-11-02T08:15:09.262Z,100561.97
2022-11-02T08:17:36.139Z,100558.47
2022-11-02T08:20:02.939Z,100565.41
2022-11-02T08:22:29.578Z,100549.72
2022-11-02T08:24:56.498Z,100556.72
2022-11-02T08:27:23.181Z,100547.91
2022-11-02T08:29:50.292Z,100553.22
2022-11-02T08:32:17.337Z,100562.81
2022-11-02T08:34:44.039Z,100554.84
2022-11-02T08:37:10.754Z,100560.19
2022-11-02T08:39:37.784Z,100561.97
2022-11-02T08:42:04.580Z,100561.09
2022-11-02T08:44:31.278Z,100561.88
2022-11-02T08:46:58.402Z,100551.50
2022-11-02T08:49:25.124Z,100558.47
2022-11-02T08:51:51.824Z,100552.37
2022-11-02T08:54:18.832Z,100558.47
2022-11-02T08:56:45.505Z,100549.75
2022-11-02T08:59:12.221Z,100547.09
2022-11-02T09:01:39.359Z,100548.00
2022-11-02T09:04:06.110Z,100544.53
2022-11-02T09:06:32.758Z,100546.25
2022-11-02T09:08:59.715Z,100539.25
2022-11-02T09:11:26.421Z,100539.25
2022-11-02T09:13:56.895Z,100542.75
2022-11-02T09:16:25.082Z,100535.78
2022-11-02T09:18:52.098Z,100544.44
2022-11-02T09:21:18.807Z,100553.22
2022-11-02T09:23:48.477Z,100545.34
2022-11-02T09:26:15.430Z,100539.16
2022-11-02T09:28:42.091Z,100547.94
2022-11-02T09:31:11.567Z,100532.94
2022-11-02T09:33:38.789Z,100544.47
2022-11-02T09:36:06.135Z,100538.31
2022-11-02T09:38:33.747Z,100540.91
2022-11-02T09:41:03.386Z,100537.38
2022-11-02T09:44:02.186Z,100534.78
2022-11-02T09:46:30.648Z,100533.88
2022-11-02T09:48:58.965Z,100537.25
2022-11-02T09:51:26.832Z,100531.06
2022-11-02T09:54:17.411Z,100530.28
2022-11-02T09:56:44.915Z,100527.66
2022-11-02T09:59:13.017Z,100529.50
2022-11-02T10:01:57.834Z,100533.88
2022-11-02T10:04:30.794Z,100526.66
2022-11-02T10:07:17.748Z,100531.06
2022-11-02T10:09:55.019Z,100530.22
2022-11-02T10:12:24.270Z,100528.50
2022-11-02T10:14:54.164Z,100528.41
2022-11-02T10:17:22.014Z,100526.44
2022-11-02T10:19:51.048Z,100521.00
2022-11-02T10:22:17.989Z,100517.44
2022-11-02T10:24:45.377Z,100520.97
2022-11-02T10:27:29.148Z,100519.31
2022-11-02T10:30:03.928Z,100515.69
2022-11-02T10:32:31.122Z,100513.94
2022-11-02T10:35:04.289Z,100508.44
2022-11-02T10:37:52.560Z,100515.47
2022-11-02T10:40:41.246Z,100522.25
2022-11-02T10:43:15.091Z,100520.50
2022-11-02T10:45:53.125Z,100516.19
2022-11-02T10:48:27.377Z,100525.78
2022-11-02T10:51:08.120Z,100520.34
2022-11-02T10:53:48.665Z,100523.53
2022-11-02T10:56:19.867Z,100523.38
2022-11-02T10:58:49.394Z,100516.50
2022-11-02T11:01:16.425Z,100514.50
2022-11-02T11:03:52.988Z,100514.75
2022-11-02T11:06:19.976Z,100512.91
2022-11-02T11:08:49.785Z,100509.34
2022-11-02T11:11:21.068Z,100519.00
2022-11-02T11:16:45.168Z,100518.19
2022-11-02T11:22:25.632Z,100525.28
2022-11-02T11:24:52.621Z,100517.22
2022-11-02T11:27:20.108Z,100523.22
2022-11-02T11:29:54.728Z,100530.12
2022-11-02T11:32:24.611Z,100530.94
2022-11-02T11:34:56.815Z,100534.25
2022-11-02T11:37:24.305Z,100535.25
2022-11-02T11:39:54.799Z,100530.03
2022-11-02T11:42:22.848Z,100528.03
2022-11-02T11:45:00.707Z,100528.44
2022-11-02T11:47:28.445Z,100530.06
2022-11-02T11:50:10.529Z,100529.03
2022-11-02T11:52:42.459Z,100528.09
2022-11-02T11:55:23.378Z,100525.56
2022-11-02T11:58:06.709Z,100514.06
2022-11-02T12:00:34.581Z,100513.94
2022-11-02T12:03:02.563Z,100508.00
2022-11-02T12:05:29.542Z,100495.06
2022-11-02T12:08:14.893Z,100483.31
2022-11-02T12:10:48.819Z,100487.44
2022-11-02T12:13:21.360Z,100477.00
2022-11-02T12:16:00.506Z,100474.91
2022-11-02T12:18:27.128Z,100473.00
2022-11-02T12:21:00.226Z,100474.03
2022-11-02T12:23:32.747Z,100473.31
2022-11-02T12:26:06.005Z,100471.28
2022-11-02T12:28:39.086Z,100460.75
2022-11-02T12:31:10.654Z,100456.28
2022-11-02T12:33:48.829Z,100458.25
2022-11-02T12:36:34.607Z,100454.72
2022-11-02T12:39:03.973Z,100458.44
2022-11-02T12:41:43.398Z,100451.91
2022-11-02T12:44:13.232Z,100446.34
2022-11-02T12:46:56.135Z,100443.84
2022-11-02T12:49:36.381Z,100452.62
2022-11-02T12:52:03.376Z,100443.47
2022-11-02T12:54:35.639Z,100437.34
2022-11-02T12:57:06.084Z,100446.44
2022-11-02T12:59:33.026Z,100437.00
2022-11-02T13:04:39.705Z,100436.19
2022-11-02T13:07:11.635Z,100440.06
2022-11-02T13:09:39.116Z,100440.63
2022-11-02T13:12:06.071Z,100438.91
2022-11-02T13:14:46.691Z,100427.94
2022-11-02T13:17:16.826Z,100438.69
2022-11-02T13:19:44.118Z,100429.87
2022-11-02T13:22:10.901Z,100435.12
2022-11-02T13:24:42.816Z,100427.63
2022-11-02T13:27:35.971Z,100435.59
2022-11-02T13:30:13.504Z,100441.63
2022-11-02T13:32:43.571Z,100437.13
2022-11-02T13:35:17.397Z,100445.16
2022-11-02T13:37:54.043Z,100437.78
2022-11-02T13:40:33.951Z,100442.53
2022-11-02T13:43:21.929Z,100447.19
2022-11-02T13:46:05.993Z,100442.16
2022-11-02T13:48:48.510Z,100453.63
2022-11-02T13:51:25.590Z,100453.00
2022-11-02T13:54:03.035Z,100449.31
2022-11-02T13:56:35.106Z,100449.72
2022-11-02T13:59:09.547Z,100451.50
2022-11-02T14:01:38.510Z,100457.50
2022-11-02T14:04:06.922Z,100461.00
2022-11-02T14:06:54.110Z,100456.69
2022-11-02T14:09:26.000Z,100462.12
2022-11-02T14:11:56.155Z,100461.97
2022-11-02T14:14:26.800Z,100465.59
2022-11-02T14:19:48.491Z,100466.72
2022-11-02T14:22:18.168Z,100461.69
2022-11-02T14:24:53.850Z,100465.97
2022-11-02T14:27:22.693Z,100458.88
2022-11-02T14:29:53.971Z,100457.97
2022-11-02T14:32:22.745Z,100455.53
2022-11-02T14:35:09.151Z,100454.69
2022-11-02T14:37:35.841Z,100457.31
2022-11-02T14:40:21.581Z,100459.16
2022-11-02T14:42:57.581Z,100467.84
2022-11-02T14:45:26.530Z,100468.81
2022-11-02T14:47:57.996Z,100468.88
2022-11-02T14:50:24.887Z,100473.28
2022-11-02T14:52:59.064Z,100473.38
2022-11-02T14:55:27.416Z,100475.13
2022-11-02T14:57:58.408Z,100469.91
2022-11-02T15:00:31.539Z,100472.59
2022-11-02T15:02:58.617Z,100475.19
2022-11-02T15:05:35.969Z,100474.28
2022-11-02T15:08:07.277Z,100475.22
2022-11-02T15:10:38.447Z,100478.78
2022-11-02T15:13:20.869Z,100481.53
2022-11-02T15:15:50.828Z,100479.00
2022-11-02T15:18:30.356Z,100479.12
2022-11-02T15:21:12.782Z,100473.97
2022-11-02T15:23:58.843Z,100477.37
2022-11-02T15:26:31.382Z,100485.31
2022-11-02T15:28:59.826Z,100491.37
2022-11-02T15:31:26.972Z,100482.78
2022-11-02T15:33:55.397Z,100489.88
2022-11-02T15:39:27.442Z,100498.72
2022-11-02T15:42:03.073Z,100494.53
2022-11-02T15:44:33.030Z,100498.06
2022-11-02T15:46:59.930Z,100502.41
2022-11-02T15:49:33.804Z,100498.88
2022-11-02T15:52:00.791Z,100497.16
2022-11-02T15:54:46.504Z,100493.69
2022-11-02T15:57:19.476Z,100499.03
2022-11-02T15:59:49.715Z,100494.94
2022-11-02T16:02:24.064Z,100492.28
2022-11-02T16:04:51.942Z,100493.25
2022-11-02T16:07:18.636Z,100491.56
2022-11-02T16:09:48.636Z,100494.19
2022-11-02T16:12:21.826Z,100497.87
2022-11-02T16:14:52.614Z,100497.94
2022-11-02T16:17:23.595Z,100493.66
2022-11-02T16:19:50.696Z,100494.59
2022-11-02T16:22:24.599Z,100488.56
2022-11-02T16:24:52.246Z,100498.19
2022-11-02T16:27:18.992Z,100503.59
2022-11-02T16:29:45.620Z,100510.59
2022-11-02T16:32:12.775Z,100512.50
2022-11-02T16:34:40.703Z,100517.75
2022-11-02T16:37:10.566Z,100519.59
2022-11-02T16:39:38.653Z,100519.63
2022-11-02T16:42:10.328Z,100519.66
2022-11-02T16:44:38.267Z,100517.91
2022-11-02T16:47:08.174Z,100525.03
2022-11-02T16:49:35.348Z,100521.56
2022-11-02T16:52:19.221Z,100525.97
2022-11-02T16:54:45.945Z,100537.31
2022-11-02T16:57:19.066Z,100535.66
2022-11-02T17:00:09.634Z,100533.91
2022-11-02T17:02:37.312Z,100539.16
2022-11-02T17:05:06.614Z,100537.47
2022-11-02T17:07:33.797Z,100537.53
2022-11-02T17:10:01.012Z,100546.25
2022-11-02T17:12:37.765Z,100540.16
2022-11-02T17:15:11.705Z,100541.87
2022-11-02T17:17:39.590Z,100543.62
2022-11-02T17:20:14.930Z,100543.62
2022-11-02T17:22:55.630Z,100552.37
2022-11-02T17:25:22.564Z,100548.00
2022-11-02T17:27:50.132Z,100555.84
2022-11-02T17:30:43.534Z,100550.62
2022-11-02T17:33:14.356Z,100561.97
2022-11-02T17:36:04.502Z,100568.09
2022-11-02T17:38:32.426Z,100560.22
2022-11-02T17:40:59.375Z,100561.97
2022-11-02T17:43:26.276Z,100565.47
2022-11-02T17:45:56.508Z,100565.44
2022-11-02T17:48:24.976Z,100569.81
2022-11-02T17:50:52.578Z,100567.22
2022-11-02T17:53:19.611Z,100564.53
2022-11-02T17:55:46.585Z,100565.41
2022-11-02T17:58:14.250Z,100560.22
2022-11-02T18:00:42.743Z,100561.94
2022-11-02T18:03:14.608Z,100563.69
2022-11-02T18:05:43.723Z,100556.72
2022-11-02T18:08:14.182Z,100561.97
2022-11-02T18:10:41.686Z,100564.59
2022-11-02T18:13:15.937Z,100562.00
2022-11-02T18:15:43.278Z,100560.22
2022-11-02T18:18:10.616Z,100565.44
2022-11-02T18:20:41.532Z,100564.59
2022-11-02T18:23:16.713Z,100564.59
2022-11-02T18:25:44.125Z,100565.47
2022-11-02T18:28:14.917Z,100561.97
2022-11-02T18:30:52.355Z,100561.97
2022-11-02T18:33:19.993Z,100567.22
2022-11-02T18:35:47.602Z,100561.09
2022-11-02T18:38:14.712Z,100565.44
2022-11-02T18:40:43.339Z,100562.84
2022-11-02T18:43:10.945Z,100563.69
2022-11-02T18:45:38.739Z,100561.97
2022-11-02T18:48:06.576Z,100563.69
2022-11-02T18:50:34.319Z,100565.47
2022-11-02T18:53:01.416Z,100562.81
2022-11-02T18:55:28.889Z,100563.69
2022-11-02T18:57:56.791Z,100561.09
2022-11-02T19:00:24.526Z,100558.47
2022-11-02T19:02:52.111Z,100561.09
2022-11-02T19:05:38.417Z,100565.44
2022-11-02T19:08:24.957Z,100560.22
2022-11-02T19:10:52.262Z,100568.06
2022-11-02T19:13:20.427Z,100581.12
2022-11-02T19:15:47.649Z,100574.16
2022-11-02T19:18:14.947Z,100571.53
2022-11-02T19:20:42.309Z,100582.03
2022-11-02T19:23:10.152Z,100574.16
2022-11-02T19:25:37.410Z,100575.91
2022-11-02T19:28:05.022Z,100579.41
2022-11-02T19:30:34.738Z,100582.03
2022-11-02T19:33:03.421Z,100581.19
2022-11-02T19:35:31.035Z,100583.78
2022-11-02T19:37:58.887Z,100580.28
2022-11-02T19:40:26.239Z,100581.19
2022-11-02T19:42:54.771Z,100581.19
2022-11-02T19:45:22.497Z,100585.53
2022-11-02T19:47:50.601Z,100581.19
2022-11-02T19:50:18.011Z,100582.91
2022-11-02T19:52:47.738Z,100583.78
2022-11-02T19:55:17.733Z,100588.16
2022-11-02T19:57:45.127Z,100582.91
2022-11-02T20:00:13.656Z,100591.66
2022-11-02T20:02:41.646Z,100588.16
2022-11-02T20:05:09.221Z,100589.03
2022-11-02T20:07:37.931Z,100586.41
2022-11-02T20:10:05.599Z,100593.37
2022-11-02T20:12:36.310Z,100590.75
2022-11-02T20:15:03.639Z,100589.91
2022-11-02T20:17:42.172Z,100595.12
2022-11-02T20:20:19.392Z,100582.91
2022-11-02T20:22:46.968Z,100589.03
2022-11-02T20:25:14.857Z,100596.00
2022-11-02T20:27:43.616Z,100599.47
2022-11-02T20:30:11.320Z,100603.81
2022-11-02T20:32:38.117Z,100591.56
2022-11-02T20:35:09.702Z,100590.69
2022-11-02T20:37:39.853Z,100588.00
2022-11-02T20:40:07.655Z,100596.81
2022-11-02T20:42:35.739Z,100593.31
2022-11-02T20:45:03.495Z,100586.31
2022-11-02T20:47:31.790Z,100582.78
2022-11-02T20:50:00.141Z,100598.44
2022-11-02T20:52:27.310Z,100588.00
2022-11-02T20:54:57.076Z,100600.22
2022-11-02T20:57:30.806Z,100596.78
2022-11-02T20:59:57.826Z,100596.78
2022-11-02T21:02:24.829Z,100591.50
2022-11-02T21:04:52.141Z,100588.00
2022-11-02T21:07:19.186Z,100591.50
2022-11-02T21:09:46.031Z,100586.28
2022-11-02T21:12:31.749Z,100591.56
2022-11-02T21:14:59.042Z,100601.94
2022-11-02T21:17:26.223Z,100601.94
2022-11-02T21:19:58.202Z,100598.47
2022-11-02T21:22:29.873Z,100593.31
2022-11-02T21:24:58.511Z,100601.91
2022-11-02T21:27:25.313Z,100602.81
2022-11-02T21:29:52.579Z,100610.63
2022-11-02T21:32:19.502Z,100606.25
2022-11-02T21:34:46.228Z,100611.41
2022-11-02T21:37:15.934Z,100614.13
2022-11-02T21:39:43.021Z,100610.63
2022-11-02T21:42:09.930Z,100604.47
2022-11-02T21:44:36.999Z,100612.41
2022-11-02T21:47:03.717Z,100612.41
2022-11-02T21:49:30.683Z,100612.50
2022-11-02T21:51:57.661Z,100608.94
2022-11-02T21:54:24.337Z,100607.19
2022-11-02T21:56:52.642Z,100610.75
2022-11-02T21:59:19.546Z,100603.69
2022-11-02T22:01:49.808Z,100602.81
2022-11-02T22:04:17.315Z,100621.06
2022-11-02T22:06:44.033Z,100614.13
2022-11-02T22:09:11.581Z,100622.00
2022-11-02T22:11:38.802Z,100611.56
2022-11-02T22:14:05.586Z,100612.41
2022-11-02T22:16:34.920Z,100614.19
2022-11-02T22:19:03.253Z,100615.84
2022-11-02T22:21:30.928Z,100615.03
2022-11-02T22:23:58.001Z,100619.38
2022-11-02T22:26:25.813Z,100620.19
2022-11-02T22:28:52.815Z,100618.53
2022-11-02T22:31:23.862Z,100628.09
2022-11-02T22:33:51.835Z,100617.59
2022-11-02T22:36:19.587Z,100631.53
2022-11-02T22:38:51.476Z,100624.56
2022-11-02T22:41:20.417Z,100624.53
2022-11-02T22:43:47.598Z,100621.00
2022-11-02T22:46:17.306Z,100622.75
2022-11-02T22:48:44.209Z,100624.47
2022-11-02T22:51:11.653Z,100632.38
2022-11-02T22:53:38.740Z,100637.47
2022-11-02T22:56:11.887Z,100633.22
2022-11-02T22:58:42.257Z,100640.16
2022-11-02T23:01:10.570Z,100640.16
2022-11-02T23:03:37.431Z,100634.03
2022-11-02T23:06:06.507Z,100634.94
2022-11-02T23:08:35.170Z,100633.22
2022-11-02T23:11:20.813Z,100631.47
2022-11-02T23:13:51.962Z,100638.41
2022-11-02T23:16:24.468Z,100634.06
2022-11-02T23:19:13.352Z,100640.13
2022-11-02T23:21:41.611Z,100641.88
2022-11-02T23:24:26.989Z,100641.91
2022-11-02T23:26:53.844Z,100636.69
2022-11-02T23:29:39.533Z,100627.94
2022-11-02T23:32:26.093Z,100637.50
2022-11-02T23:35:12.243Z,100628.75
2022-11-02T23:37:39.032Z,100636.69
2022-11-02T23:40:06.337Z,100640.13
2022-11-02T23:42:33.134Z,100634.03
2022-11-02T23:45:00.088Z,100633.09
2022-11-02T23:47:48.932Z,100627.91
2022-11-02T23:50:35.970Z,100636.56
2022-11-02T23:53:21.967Z,100636.59
2022-11-02T23:56:07.360Z,100637.44
2022-11-02T23:58:34.336Z,100641.75
